sensor_id;sensor_type;location;lat;lon;timestamp;P1;durP1;ratioP1;P2;durP2;ratioP2
76296;SDS011;65104;52.994;6.552;2024-01-11T00:01:15;10.93;;;5.80;;
76296;SDS011;65104;52.994;6.552;2024-01-11T00:03:42;15.15;;;6.40;;
76296;SDS011;65104;52.994;6.552;2024-01-11T00:06:09;16.30;;;7.55;;
76296;SDS011;65104;52.994;6.552;2024-01-11T00:08:36;14.82;;;7.13;;
76296;SDS011;65104;52.994;6.552;2024-01-11T00:11:02;12.20;;;6.60;;
76296;SDS011;65104;52.994;6.552;2024-01-11T00:13:29;14.95;;;7.13;;
76296;SDS011;65104;52.994;6.552;2024-01-11T00:15:57;9.55;;;4.72;;
76296;SDS011;65104;52.994;6.552;2024-01-11T00:18:24;16.80;;;8.77;;
76296;SDS011;65104;52.994;6.552;2024-01-11T00:20:50;8.18;;;6.10;;
76296;SDS011;65104;52.994;6.552;2024-01-11T00:23:17;11.70;;;6.38;;
76296;SDS011;65104;52.994;6.552;2024-01-11T00:25:44;13.18;;;6.30;;
76296;SDS011;65104;52.994;6.552;2024-01-11T00:28:10;11.55;;;7.70;;
76296;SDS011;65104;52.994;6.552;2024-01-11T00:30:37;13.98;;;5.50;;
76296;SDS011;65104;52.994;6.552;2024-01-11T00:33:05;12.07;;;5.60;;
76296;SDS011;65104;52.994;6.552;2024-01-11T00:37:58;12.07;;;6.25;;
76296;SDS011;65104;52.994;6.552;2024-01-11T00:40:25;14.55;;;6.13;;
76296;SDS011;65104;52.994;6.552;2024-01-11T00:42:52;14.65;;;7.03;;
76296;SDS011;65104;52.994;6.552;2024-01-11T00:45:18;13.30;;;5.28;;
76296;SDS011;65104;52.994;6.552;2024-01-11T00:47:45;11.00;;;6.05;;
76296;SDS011;65104;52.994;6.552;2024-01-11T00:50:13;11.30;;;5.53;;
76296;SDS011;65104;52.994;6.552;2024-01-11T00:52:40;9.93;;;6.00;;
76296;SDS011;65104;52.994;6.552;2024-01-11T00:55:06;8.77;;;4.55;;
76296;SDS011;65104;52.994;6.552;2024-01-11T00:57:33;11.68;;;5.35;;
76296;SDS011;65104;52.994;6.552;2024-01-11T01:00:00;15.68;;;7.03;;
76296;SDS011;65104;52.994;6.552;2024-01-11T01:02:26;14.93;;;6.28;;
76296;SDS011;65104;52.994;6.552;2024-01-11T01:04:53;13.18;;;4.60;;
76296;SDS011;65104;52.994;6.552;2024-01-11T01:07:21;10.32;;;5.40;;
76296;SDS011;65104;52.994;6.552;2024-01-11T01:09:48;8.80;;;4.68;;
76296;SDS011;65104;52.994;6.552;2024-01-11T01:12:15;10.63;;;6.90;;
76296;SDS011;65104;52.994;6.552;2024-01-11T01:14:42;12.38;;;6.72;;
76296;SDS011;65104;52.994;6.552;2024-01-11T01:17:08;15.43;;;7.43;;
76296;SDS011;65104;52.994;6.552;2024-01-11T01:19:35;11.15;;;5.57;;
76296;SDS011;65104;52.994;6.552;2024-01-11T01:22:01;12.65;;;6.28;;
76296;SDS011;65104;52.994;6.552;2024-01-11T01:24:30;12.65;;;5.75;;
76296;SDS011;65104;52.994;6.552;2024-01-11T01:26:57;14.88;;;7.13;;
76296;SDS011;65104;52.994;6.552;2024-01-11T01:29:23;16.08;;;7.47;;
76296;SDS011;65104;52.994;6.552;2024-01-11T01:31:50;12.23;;;5.07;;
76296;SDS011;65104;52.994;6.552;2024-01-11T01:34:17;10.73;;;6.07;;
76296;SDS011;65104;52.994;6.552;2024-01-11T01:36:44;8.85;;;6.05;;
76296;SDS011;65104;52.994;6.552;2024-01-11T01:39:10;13.82;;;6.28;;
76296;SDS011;65104;52.994;6.552;2024-01-11T01:41:38;13.18;;;6.80;;
76296;SDS011;65104;52.994;6.552;2024-01-11T01:44:05;15.20;;;6.28;;
76296;SDS011;65104;52.994;6.552;2024-01-11T01:46:31;11.45;;;5.13;;
76296;SDS011;65104;52.994;6.552;2024-01-11T01:48:59;12.73;;;7.00;;
76296;SDS011;65104;52.994;6.552;2024-01-11T01:51:27;10.57;;;5.18;;
76296;SDS011;65104;52.994;6.552;2024-01-11T01:53:56;13.43;;;6.50;;
76296;SDS011;65104;52.994;6.552;2024-01-11T01:56:24;13.13;;;6.05;;
76296;SDS011;65104;52.994;6.552;2024-01-11T01:58:53;15.63;;;7.05;;
76296;SDS011;65104;52.994;6.552;2024-01-11T02:01:20;13.18;;;6.95;;
76296;SDS011;65104;52.994;6.552;2024-01-11T02:03:48;11.45;;;5.55;;
76296;SDS011;65104;52.994;6.552;2024-01-11T02:06:16;24.48;;;7.05;;
76296;SDS011;65104;52.994;6.552;2024-01-11T02:08:43;10.23;;;6.65;;
76296;SDS011;65104;52.994;6.552;2024-01-11T02:11:10;9.90;;;7.00;;
76296;SDS011;65104;52.994;6.552;2024-01-11T02:13:37;10.68;;;5.35;;
76296;SDS011;65104;52.994;6.552;2024-01-11T02:16:05;15.45;;;6.88;;
76296;SDS011;65104;52.994;6.552;2024-01-11T02:18:32;16.75;;;7.53;;
76296;SDS011;65104;52.994;6.552;2024-01-11T02:20:58;17.40;;;7.13;;
76296;SDS011;65104;52.994;6.552;2024-01-11T02:23:25;13.55;;;5.50;;
76296;SDS011;65104;52.994;6.552;2024-01-11T02:25:54;17.70;;;7.40;;
76296;SDS011;65104;52.994;6.552;2024-01-11T02:28:21;13.65;;;6.20;;
76296;SDS011;65104;52.994;6.552;2024-01-11T02:30:48;9.88;;;6.07;;
76296;SDS011;65104;52.994;6.552;2024-01-11T02:33:14;18.00;;;8.15;;
76296;SDS011;65104;52.994;6.552;2024-01-11T02:35:41;12.98;;;6.72;;
76296;SDS011;65104;52.994;6.552;2024-01-11T02:38:08;11.80;;;6.85;;
76296;SDS011;65104;52.994;6.552;2024-01-11T02:40:36;12.43;;;6.22;;
76296;SDS011;65104;52.994;6.552;2024-01-11T02:43:11;10.40;;;6.13;;
76296;SDS011;65104;52.994;6.552;2024-01-11T02:45:37;12.95;;;6.20;;
76296;SDS011;65104;52.994;6.552;2024-01-11T02:48:04;15.02;;;8.02;;
76296;SDS011;65104;52.994;6.552;2024-01-11T02:50:31;15.38;;;7.07;;
76296;SDS011;65104;52.994;6.552;2024-01-11T02:52:58;14.98;;;6.88;;
76296;SDS011;65104;52.994;6.552;2024-01-11T02:55:25;14.25;;;6.65;;
76296;SDS011;65104;52.994;6.552;2024-01-11T02:57:51;16.67;;;7.50;;
76296;SDS011;65104;52.994;6.552;2024-01-11T03:00:19;15.55;;;6.90;;
76296;SDS011;65104;52.994;6.552;2024-01-11T03:02:46;12.63;;;6.18;;
76296;SDS011;65104;52.994;6.552;2024-01-11T03:05:12;8.88;;;7.30;;
76296;SDS011;65104;52.994;6.552;2024-01-11T03:07:39;14.85;;;6.15;;
76296;SDS011;65104;52.994;6.552;2024-01-11T03:10:06;20.13;;;7.43;;
76296;SDS011;65104;52.994;6.552;2024-01-11T03:12:33;12.75;;;6.60;;
76296;SDS011;65104;52.994;6.552;2024-01-11T03:14:59;13.80;;;6.85;;
76296;SDS011;65104;52.994;6.552;2024-01-11T03:17:27;9.77;;;6.32;;
76296;SDS011;65104;52.994;6.552;2024-01-11T03:19:54;9.82;;;5.63;;
76296;SDS011;65104;52.994;6.552;2024-01-11T03:22:21;16.30;;;6.15;;
76296;SDS011;65104;52.994;6.552;2024-01-11T03:24:47;17.08;;;7.70;;
76296;SDS011;65104;52.994;6.552;2024-01-11T03:27:14;12.55;;;7.90;;
76296;SDS011;65104;52.994;6.552;2024-01-11T03:29:40;11.77;;;7.40;;
76296;SDS011;65104;52.994;6.552;2024-01-11T03:32:07;13.98;;;6.68;;
76296;SDS011;65104;52.994;6.552;2024-01-11T03:34:39;11.48;;;6.40;;
76296;SDS011;65104;52.994;6.552;2024-01-11T03:37:05;15.98;;;6.95;;
76296;SDS011;65104;52.994;6.552;2024-01-11T03:39:32;16.73;;;8.38;;
76296;SDS011;65104;52.994;6.552;2024-01-11T03:41:59;17.25;;;8.18;;
76296;SDS011;65104;52.994;6.552;2024-01-11T03:44:25;16.95;;;6.32;;
76296;SDS011;65104;52.994;6.552;2024-01-11T03:46:52;19.08;;;8.57;;
76296;SDS011;65104;52.994;6.552;2024-01-11T03:49:19;13.35;;;7.32;;
76296;SDS011;65104;52.994;6.552;2024-01-11T03:51:47;18.20;;;7.97;;
76296;SDS011;65104;52.994;6.552;2024-01-11T03:54:13;17.33;;;7.50;;
76296;SDS011;65104;52.994;6.552;2024-01-11T03:56:40;15.75;;;7.05;;
76296;SDS011;65104;52.994;6.552;2024-01-11T03:59:06;21.48;;;9.02;;
76296;SDS011;65104;52.994;6.552;2024-01-11T04:01:33;18.92;;;9.88;;
76296;SDS011;65104;52.994;6.552;2024-01-11T04:04:04;11.32;;;5.88;;
76296;SDS011;65104;52.994;6.552;2024-01-11T04:06:30;12.13;;;7.10;;
76296;SDS011;65104;52.994;6.552;2024-01-11T04:08:58;19.70;;;8.00;;
76296;SDS011;65104;52.994;6.552;2024-01-11T04:11:26;11.15;;;8.00;;
76296;SDS011;65104;52.994;6.552;2024-01-11T04:13:53;13.43;;;7.47;;
76296;SDS011;65104;52.994;6.552;2024-01-11T04:16:20;15.90;;;7.25;;
76296;SDS011;65104;52.994;6.552;2024-01-11T04:18:47;18.48;;;7.40;;
76296;SDS011;65104;52.994;6.552;2024-01-11T04:21:20;21.30;;;7.97;;
76296;SDS011;65104;52.994;6.552;2024-01-11T04:23:48;13.55;;;6.47;;
76296;SDS011;65104;52.994;6.552;2024-01-11T04:26:16;13.73;;;6.07;;
76296;SDS011;65104;52.994;6.552;2024-01-11T04:28:44;11.05;;;6.45;;
76296;SDS011;65104;52.994;6.552;2024-01-11T04:31:11;17.00;;;6.43;;
76296;SDS011;65104;52.994;6.552;2024-01-11T04:33:39;13.48;;;6.80;;
76296;SDS011;65104;52.994;6.552;2024-01-11T04:36:06;13.68;;;5.82;;
76296;SDS011;65104;52.994;6.552;2024-01-11T04:38:33;12.50;;;6.32;;
76296;SDS011;65104;52.994;6.552;2024-01-11T04:41:00;14.82;;;5.30;;
76296;SDS011;65104;52.994;6.552;2024-01-11T04:43:28;12.73;;;6.88;;
76296;SDS011;65104;52.994;6.552;2024-01-11T04:45:54;11.68;;;5.93;;
76296;SDS011;65104;52.994;6.552;2024-01-11T04:48:21;10.88;;;6.57;;
76296;SDS011;65104;52.994;6.552;2024-01-11T04:50:48;16.38;;;8.50;;
76296;SDS011;65104;52.994;6.552;2024-01-11T04:53:14;16.48;;;7.68;;
76296;SDS011;65104;52.994;6.552;2024-01-11T04:55:41;11.32;;;8.05;;
76296;SDS011;65104;52.994;6.552;2024-01-11T04:58:07;15.95;;;7.55;;
76296;SDS011;65104;52.994;6.552;2024-01-11T05:00:35;12.15;;;9.32;;
76296;SDS011;65104;52.994;6.552;2024-01-11T05:03:02;11.40;;;6.82;;
76296;SDS011;65104;52.994;6.552;2024-01-11T05:05:29;14.57;;;7.45;;
76296;SDS011;65104;52.994;6.552;2024-01-11T05:07:56;14.70;;;8.48;;
76296;SDS011;65104;52.994;6.552;2024-01-11T05:10:23;13.50;;;6.78;;
76296;SDS011;65104;52.994;6.552;2024-01-11T05:12:50;15.95;;;7.30;;
76296;SDS011;65104;52.994;6.552;2024-01-11T05:15:16;14.68;;;6.32;;
76296;SDS011;65104;52.994;6.552;2024-01-11T05:17:44;24.25;;;9.63;;
76296;SDS011;65104;52.994;6.552;2024-01-11T05:20:11;15.98;;;9.95;;
76296;SDS011;65104;52.994;6.552;2024-01-11T05:22:37;21.40;;;8.77;;
76296;SDS011;65104;52.994;6.552;2024-01-11T05:25:04;16.27;;;9.27;;
76296;SDS011;65104;52.994;6.552;2024-01-11T05:27:31;20.25;;;9.93;;
76296;SDS011;65104;52.994;6.552;2024-01-11T05:29:58;16.85;;;8.30;;
76296;SDS011;65104;52.994;6.552;2024-01-11T05:32:24;20.83;;;10.13;;
76296;SDS011;65104;52.994;6.552;2024-01-11T05:34:52;16.45;;;8.60;;
76296;SDS011;65104;52.994;6.552;2024-01-11T05:37:19;15.90;;;7.13;;
76296;SDS011;65104;52.994;6.552;2024-01-11T05:39:46;18.10;;;8.68;;
76296;SDS011;65104;52.994;6.552;2024-01-11T05:42:12;15.02;;;7.60;;
76296;SDS011;65104;52.994;6.552;2024-01-11T05:44:39;21.15;;;8.60;;
76296;SDS011;65104;52.994;6.552;2024-01-11T05:47:05;18.60;;;9.38;;
76296;SDS011;65104;52.994;6.552;2024-01-11T05:49:32;11.80;;;7.28;;
76296;SDS011;65104;52.994;6.552;2024-01-11T05:52:00;27.80;;;10.60;;
76296;SDS011;65104;52.994;6.552;2024-01-11T05:54:27;17.25;;;7.97;;
76296;SDS011;65104;52.994;6.552;2024-01-11T05:56:54;16.27;;;7.22;;
76296;SDS011;65104;52.994;6.552;2024-01-11T05:59:23;17.75;;;7.35;;
76296;SDS011;65104;52.994;6.552;2024-01-11T06:01:49;17.25;;;8.82;;
76296;SDS011;65104;52.994;6.552;2024-01-11T06:04:16;15.35;;;7.88;;
76296;SDS011;65104;52.994;6.552;2024-01-11T06:06:42;18.60;;;7.50;;
76296;SDS011;65104;52.994;6.552;2024-01-11T06:09:10;18.30;;;9.18;;
76296;SDS011;65104;52.994;6.552;2024-01-11T06:11:37;20.92;;;10.23;;
76296;SDS011;65104;52.994;6.552;2024-01-11T06:14:04;16.33;;;7.53;;
76296;SDS011;65104;52.994;6.552;2024-01-11T06:16:30;15.13;;;7.25;;
76296;SDS011;65104;52.994;6.552;2024-01-11T06:18:57;17.80;;;10.13;;
76296;SDS011;65104;52.994;6.552;2024-01-11T06:21:24;12.68;;;8.50;;
76296;SDS011;65104;52.994;6.552;2024-01-11T06:23:50;21.33;;;9.80;;
76296;SDS011;65104;52.994;6.552;2024-01-11T06:26:18;23.45;;;10.57;;
76296;SDS011;65104;52.994;6.552;2024-01-11T06:28:45;23.15;;;8.68;;
76296;SDS011;65104;52.994;6.552;2024-01-11T06:31:11;19.50;;;9.13;;
76296;SDS011;65104;52.994;6.552;2024-01-11T06:33:38;21.35;;;10.20;;
76296;SDS011;65104;52.994;6.552;2024-01-11T06:36:05;18.80;;;8.02;;
76296;SDS011;65104;52.994;6.552;2024-01-11T06:38:33;17.10;;;9.15;;
76296;SDS011;65104;52.994;6.552;2024-01-11T06:41:00;21.85;;;10.15;;
76296;SDS011;65104;52.994;6.552;2024-01-11T06:43:27;17.33;;;7.57;;
76296;SDS011;65104;52.994;6.552;2024-01-11T06:45:54;18.83;;;8.70;;
76296;SDS011;65104;52.994;6.552;2024-01-11T06:48:21;18.48;;;8.50;;
76296;SDS011;65104;52.994;6.552;2024-01-11T06:50:47;21.45;;;9.15;;
76296;SDS011;65104;52.994;6.552;2024-01-11T06:53:14;24.80;;;8.85;;
76296;SDS011;65104;52.994;6.552;2024-01-11T06:55:41;16.60;;;8.68;;
76296;SDS011;65104;52.994;6.552;2024-01-11T06:58:08;19.17;;;9.82;;
76296;SDS011;65104;52.994;6.552;2024-01-11T07:00:36;19.40;;;8.27;;
76296;SDS011;65104;52.994;6.552;2024-01-11T07:03:08;18.73;;;8.52;;
76296;SDS011;65104;52.994;6.552;2024-01-11T07:05:34;17.17;;;8.13;;
76296;SDS011;65104;52.994;6.552;2024-01-11T07:08:01;19.35;;;10.38;;
76296;SDS011;65104;52.994;6.552;2024-01-11T07:10:28;19.30;;;8.77;;
76296;SDS011;65104;52.994;6.552;2024-01-11T07:12:54;15.45;;;7.88;;
76296;SDS011;65104;52.994;6.552;2024-01-11T07:15:21;22.00;;;8.77;;
76296;SDS011;65104;52.994;6.552;2024-01-11T07:17:50;13.90;;;7.13;;
76296;SDS011;65104;52.994;6.552;2024-01-11T07:20:18;20.15;;;10.90;;
76296;SDS011;65104;52.994;6.552;2024-01-11T07:22:45;20.60;;;10.82;;
76296;SDS011;65104;52.994;6.552;2024-01-11T07:25:11;18.85;;;8.80;;
76296;SDS011;65104;52.994;6.552;2024-01-11T07:27:39;21.85;;;10.05;;
76296;SDS011;65104;52.994;6.552;2024-01-11T07:30:06;21.95;;;9.77;;
76296;SDS011;65104;52.994;6.552;2024-01-11T07:32:33;16.77;;;8.65;;
76296;SDS011;65104;52.994;6.552;2024-01-11T07:35:01;23.70;;;10.55;;
76296;SDS011;65104;52.994;6.552;2024-01-11T07:37:28;19.95;;;9.38;;
76296;SDS011;65104;52.994;6.552;2024-01-11T07:39:55;21.13;;;9.68;;
76296;SDS011;65104;52.994;6.552;2024-01-11T07:42:22;25.20;;;9.02;;
76296;SDS011;65104;52.994;6.552;2024-01-11T07:44:48;22.50;;;9.52;;
76296;SDS011;65104;52.994;6.552;2024-01-11T07:47:15;25.60;;;11.70;;
76296;SDS011;65104;52.994;6.552;2024-01-11T07:49:42;16.42;;;9.70;;
76296;SDS011;65104;52.994;6.552;2024-01-11T07:52:10;18.67;;;10.13;;
76296;SDS011;65104;52.994;6.552;2024-01-11T07:54:37;22.40;;;10.00;;
76296;SDS011;65104;52.994;6.552;2024-01-11T07:57:04;17.50;;;10.10;;
76296;SDS011;65104;52.994;6.552;2024-01-11T07:59:32;18.60;;;9.98;;
76296;SDS011;65104;52.994;6.552;2024-01-11T08:02:00;16.85;;;7.68;;
76296;SDS011;65104;52.994;6.552;2024-01-11T08:04:27;19.65;;;9.27;;
76296;SDS011;65104;52.994;6.552;2024-01-11T08:06:54;22.63;;;9.63;;
76296;SDS011;65104;52.994;6.552;2024-01-11T08:09:22;17.20;;;9.32;;
76296;SDS011;65104;52.994;6.552;2024-01-11T08:11:48;19.33;;;10.68;;
76296;SDS011;65104;52.994;6.552;2024-01-11T08:14:15;16.85;;;8.40;;
76296;SDS011;65104;52.994;6.552;2024-01-11T08:16:42;20.27;;;10.38;;
76296;SDS011;65104;52.994;6.552;2024-01-11T08:19:08;18.13;;;10.38;;
76296;SDS011;65104;52.994;6.552;2024-01-11T08:21:38;20.45;;;11.32;;
76296;SDS011;65104;52.994;6.552;2024-01-11T08:24:06;18.77;;;10.15;;
76296;SDS011;65104;52.994;6.552;2024-01-11T08:26:34;22.45;;;9.95;;
76296;SDS011;65104;52.994;6.552;2024-01-11T08:29:01;18.60;;;8.77;;
76296;SDS011;65104;52.994;6.552;2024-01-11T08:31:29;20.38;;;9.63;;
76296;SDS011;65104;52.994;6.552;2024-01-11T08:33:56;22.63;;;9.48;;
76296;SDS011;65104;52.994;6.552;2024-01-11T08:36:23;17.98;;;9.32;;
76296;SDS011;65104;52.994;6.552;2024-01-11T08:38:49;23.45;;;10.50;;
76296;SDS011;65104;52.994;6.552;2024-01-11T08:41:16;21.98;;;11.43;;
76296;SDS011;65104;52.994;6.552;2024-01-11T08:43:44;24.30;;;10.60;;
76296;SDS011;65104;52.994;6.552;2024-01-11T08:46:10;22.85;;;10.52;;
76296;SDS011;65104;52.994;6.552;2024-01-11T08:48:37;26.90;;;10.60;;
76296;SDS011;65104;52.994;6.552;2024-01-11T08:51:04;24.60;;;11.07;;
76296;SDS011;65104;52.994;6.552;2024-01-11T08:53:31;22.45;;;10.98;;
76296;SDS011;65104;52.994;6.552;2024-01-11T08:55:57;21.33;;;9.75;;
76296;SDS011;65104;52.994;6.552;2024-01-11T08:58:24;22.48;;;10.63;;
76296;SDS011;65104;52.994;6.552;2024-01-11T09:00:53;23.77;;;9.93;;
76296;SDS011;65104;52.994;6.552;2024-01-11T09:03:19;17.38;;;9.35;;
76296;SDS011;65104;52.994;6.552;2024-01-11T09:05:46;22.80;;;10.07;;
76296;SDS011;65104;52.994;6.552;2024-01-11T09:08:13;18.73;;;9.18;;
76296;SDS011;65104;52.994;6.552;2024-01-11T09:10:39;19.25;;;9.05;;
76296;SDS011;65104;52.994;6.552;2024-01-11T09:13:07;18.60;;;10.48;;
76296;SDS011;65104;52.994;6.552;2024-01-11T09:15:33;14.30;;;8.27;;
76296;SDS011;65104;52.994;6.552;2024-01-11T09:18:01;22.85;;;9.80;;
76296;SDS011;65104;52.994;6.552;2024-01-11T09:20:28;23.73;;;10.38;;
76296;SDS011;65104;52.994;6.552;2024-01-11T09:22:55;22.55;;;10.15;;
76296;SDS011;65104;52.994;6.552;2024-01-11T09:25:21;21.70;;;9.85;;
76296;SDS011;65104;52.994;6.552;2024-01-11T09:27:49;19.50;;;10.25;;
76296;SDS011;65104;52.994;6.552;2024-01-11T09:30:15;19.75;;;9.75;;
76296;SDS011;65104;52.994;6.552;2024-01-11T09:32:42;16.40;;;9.02;;
76296;SDS011;65104;52.994;6.552;2024-01-11T09:35:10;17.27;;;9.65;;
76296;SDS011;65104;52.994;6.552;2024-01-11T09:37:37;24.02;;;10.02;;
76296;SDS011;65104;52.994;6.552;2024-01-11T09:40:04;19.55;;;9.80;;
76296;SDS011;65104;52.994;6.552;2024-01-11T09:42:35;24.65;;;11.02;;
76296;SDS011;65104;52.994;6.552;2024-01-11T09:45:02;22.75;;;9.60;;
76296;SDS011;65104;52.994;6.552;2024-01-11T09:47:33;26.33;;;9.80;;
76296;SDS011;65104;52.994;6.552;2024-01-11T09:50:01;29.58;;;13.00;;
76296;SDS011;65104;52.994;6.552;2024-01-11T09:52:30;34.55;;;13.40;;
76296;SDS011;65104;52.994;6.552;2024-01-11T09:54:57;31.67;;;14.32;;
76296;SDS011;65104;52.994;6.552;2024-01-11T09:57:25;22.88;;;11.35;;
76296;SDS011;65104;52.994;6.552;2024-01-11T09:59:55;22.85;;;10.25;;
76296;SDS011;65104;52.994;6.552;2024-01-11T10:02:23;20.50;;;11.50;;
76296;SDS011;65104;52.994;6.552;2024-01-11T10:04:51;23.30;;;10.70;;
76296;SDS011;65104;52.994;6.552;2024-01-11T10:07:18;18.13;;;8.23;;
76296;SDS011;65104;52.994;6.552;2024-01-11T10:09:49;14.13;;;8.07;;
76296;SDS011;65104;52.994;6.552;2024-01-11T10:12:16;18.20;;;7.97;;
76296;SDS011;65104;52.994;6.552;2024-01-11T10:14:45;19.20;;;9.63;;
76296;SDS011;65104;52.994;6.552;2024-01-11T10:17:12;18.23;;;8.27;;
76296;SDS011;65104;52.994;6.552;2024-01-11T10:19:38;15.95;;;9.07;;
76296;SDS011;65104;52.994;6.552;2024-01-11T10:22:05;25.67;;;9.10;;
76296;SDS011;65104;52.994;6.552;2024-01-11T10:24:32;21.38;;;9.25;;
76296;SDS011;65104;52.994;6.552;2024-01-11T10:27:01;17.83;;;8.80;;
76296;SDS011;65104;52.994;6.552;2024-01-11T10:29:30;18.02;;;7.20;;
76296;SDS011;65104;52.994;6.552;2024-01-11T10:31:57;23.25;;;11.23;;
76296;SDS011;65104;52.994;6.552;2024-01-11T10:34:23;16.25;;;8.23;;
76296;SDS011;65104;52.994;6.552;2024-01-11T10:36:50;15.85;;;7.90;;
76296;SDS011;65104;52.994;6.552;2024-01-11T10:39:17;23.23;;;12.10;;
76296;SDS011;65104;52.994;6.552;2024-01-11T10:41:50;16.77;;;8.43;;
76296;SDS011;65104;52.994;6.552;2024-01-11T10:44:19;20.65;;;9.38;;
76296;SDS011;65104;52.994;6.552;2024-01-11T10:46:48;14.85;;;8.32;;
76296;SDS011;65104;52.994;6.552;2024-01-11T10:49:16;21.23;;;8.55;;
76296;SDS011;65104;52.994;6.552;2024-01-11T10:51:44;24.50;;;9.02;;
76296;SDS011;65104;52.994;6.552;2024-01-11T10:54:24;15.48;;;8.57;;
76296;SDS011;65104;52.994;6.552;2024-01-11T10:56:52;22.25;;;10.63;;
76296;SDS011;65104;52.994;6.552;2024-01-11T10:59:22;19.25;;;8.75;;
76296;SDS011;65104;52.994;6.552;2024-01-11T11:01:50;20.50;;;9.25;;
76296;SDS011;65104;52.994;6.552;2024-01-11T11:04:19;18.92;;;9.65;;
76296;SDS011;65104;52.994;6.552;2024-01-11T11:06:47;14.80;;;7.70;;
76296;SDS011;65104;52.994;6.552;2024-01-11T11:09:15;20.20;;;10.15;;
76296;SDS011;65104;52.994;6.552;2024-01-11T11:11:43;19.92;;;9.43;;
76296;SDS011;65104;52.994;6.552;2024-01-11T11:14:12;20.80;;;10.77;;
76296;SDS011;65104;52.994;6.552;2024-01-11T11:16:44;22.52;;;10.23;;
76296;SDS011;65104;52.994;6.552;2024-01-11T11:19:11;14.15;;;7.70;;
76296;SDS011;65104;52.994;6.552;2024-01-11T11:21:41;16.10;;;9.43;;
76296;SDS011;65104;52.994;6.552;2024-01-11T11:24:08;14.95;;;8.38;;
76296;SDS011;65104;52.994;6.552;2024-01-11T11:26:36;17.58;;;7.78;;
76296;SDS011;65104;52.994;6.552;2024-01-11T11:29:03;12.68;;;7.60;;
76296;SDS011;65104;52.994;6.552;2024-01-11T11:31:36;18.48;;;7.95;;
76296;SDS011;65104;52.994;6.552;2024-01-11T11:34:05;14.60;;;7.30;;
76296;SDS011;65104;52.994;6.552;2024-01-11T11:36:32;15.18;;;7.43;;
76296;SDS011;65104;52.994;6.552;2024-01-11T11:38:59;21.08;;;8.65;;
76296;SDS011;65104;52.994;6.552;2024-01-11T11:44:00;19.70;;;6.50;;
76296;SDS011;65104;52.994;6.552;2024-01-11T11:46:27;15.88;;;8.43;;
76296;SDS011;65104;52.994;6.552;2024-01-11T11:48:54;16.77;;;7.03;;
76296;SDS011;65104;52.994;6.552;2024-01-11T11:51:23;17.77;;;7.05;;
76296;SDS011;65104;52.994;6.552;2024-01-11T11:53:50;19.23;;;8.38;;
76296;SDS011;65104;52.994;6.552;2024-01-11T11:56:18;18.63;;;8.70;;
76296;SDS011;65104;52.994;6.552;2024-01-11T11:58:47;17.48;;;8.57;;
76296;SDS011;65104;52.994;6.552;2024-01-11T12:01:17;14.77;;;6.97;;
76296;SDS011;65104;52.994;6.552;2024-01-11T12:03:44;21.10;;;9.40;;
76296;SDS011;65104;52.994;6.552;2024-01-11T12:06:14;11.48;;;6.82;;
76296;SDS011;65104;52.994;6.552;2024-01-11T12:08:43;16.27;;;7.95;;
76296;SDS011;65104;52.994;6.552;2024-01-11T12:11:12;20.35;;;8.73;;
76296;SDS011;65104;52.994;6.552;2024-01-11T12:13:40;13.05;;;7.18;;
76296;SDS011;65104;52.994;6.552;2024-01-11T12:16:08;18.38;;;8.38;;
76296;SDS011;65104;52.994;6.552;2024-01-11T12:18:35;23.45;;;9.02;;
76296;SDS011;65104;52.994;6.552;2024-01-11T12:21:02;13.85;;;7.65;;
76296;SDS011;65104;52.994;6.552;2024-01-11T12:23:29;16.75;;;8.75;;
76296;SDS011;65104;52.994;6.552;2024-01-11T12:25:57;15.70;;;7.30;;
76296;SDS011;65104;52.994;6.552;2024-01-11T12:28:24;16.08;;;7.65;;
76296;SDS011;65104;52.994;6.552;2024-01-11T12:30:51;18.42;;;7.82;;
76296;SDS011;65104;52.994;6.552;2024-01-11T12:33:18;21.63;;;9.48;;
76296;SDS011;65104;52.994;6.552;2024-01-11T12:35:45;16.85;;;8.13;;
76296;SDS011;65104;52.994;6.552;2024-01-11T12:38:12;17.55;;;7.28;;
76296;SDS011;65104;52.994;6.552;2024-01-11T12:40:40;16.20;;;7.65;;
76296;SDS011;65104;52.994;6.552;2024-01-11T12:43:08;18.58;;;8.73;;
76296;SDS011;65104;52.994;6.552;2024-01-11T12:45:37;17.27;;;7.93;;
76296;SDS011;65104;52.994;6.552;2024-01-11T12:48:06;17.92;;;8.82;;
76296;SDS011;65104;52.994;6.552;2024-01-11T12:50:34;20.40;;;9.25;;
76296;SDS011;65104;52.994;6.552;2024-01-11T12:53:07;15.02;;;7.72;;
76296;SDS011;65104;52.994;6.552;2024-01-11T12:55:37;15.85;;;8.07;;
76296;SDS011;65104;52.994;6.552;2024-01-11T12:58:04;18.40;;;8.52;;
76296;SDS011;65104;52.994;6.552;2024-01-11T13:00:33;19.02;;;8.13;;
76296;SDS011;65104;52.994;6.552;2024-01-11T13:02:59;16.27;;;7.80;;
76296;SDS011;65104;52.994;6.552;2024-01-11T13:05:26;21.40;;;9.80;;
76296;SDS011;65104;52.994;6.552;2024-01-11T13:07:53;16.23;;;9.77;;
76296;SDS011;65104;52.994;6.552;2024-01-11T13:10:19;21.60;;;8.98;;
76296;SDS011;65104;52.994;6.552;2024-01-11T13:12:49;13.10;;;7.88;;
76296;SDS011;65104;52.994;6.552;2024-01-11T13:15:15;19.00;;;9.05;;
76296;SDS011;65104;52.994;6.552;2024-01-11T13:17:43;21.10;;;8.95;;
76296;SDS011;65104;52.994;6.552;2024-01-11T13:20:10;17.75;;;8.73;;
76296;SDS011;65104;52.994;6.552;2024-01-11T13:22:38;21.70;;;9.73;;
76296;SDS011;65104;52.994;6.552;2024-01-11T13:25:05;15.98;;;8.77;;
76296;SDS011;65104;52.994;6.552;2024-01-11T13:27:32;22.42;;;9.60;;
76296;SDS011;65104;52.994;6.552;2024-01-11T13:29:59;20.17;;;8.88;;
76296;SDS011;65104;52.994;6.552;2024-01-11T13:32:25;18.30;;;9.27;;
76296;SDS011;65104;52.994;6.552;2024-01-11T13:34:53;21.58;;;8.60;;
76296;SDS011;65104;52.994;6.552;2024-01-11T13:37:20;19.65;;;8.57;;
76296;SDS011;65104;52.994;6.552;2024-01-11T13:39:46;19.90;;;9.38;;
76296;SDS011;65104;52.994;6.552;2024-01-11T13:42:13;20.10;;;9.77;;
76296;SDS011;65104;52.994;6.552;2024-01-11T13:44:41;14.93;;;8.35;;
76296;SDS011;65104;52.994;6.552;2024-01-11T13:47:07;21.88;;;11.00;;
76296;SDS011;65104;52.994;6.552;2024-01-11T13:49:34;17.55;;;9.38;;
76296;SDS011;65104;52.994;6.552;2024-01-11T13:52:02;23.40;;;10.70;;
76296;SDS011;65104;52.994;6.552;2024-01-11T13:54:30;21.08;;;9.75;;
76296;SDS011;65104;52.994;6.552;2024-01-11T13:56:57;22.05;;;9.43;;
76296;SDS011;65104;52.994;6.552;2024-01-11T13:59:23;16.05;;;8.65;;
76296;SDS011;65104;52.994;6.552;2024-01-11T14:01:50;25.25;;;10.77;;
76296;SDS011;65104;52.994;6.552;2024-01-11T14:04:17;22.08;;;10.55;;
76296;SDS011;65104;52.994;6.552;2024-01-11T14:06:43;21.73;;;10.20;;
76296;SDS011;65104;52.994;6.552;2024-01-11T14:09:11;18.25;;;8.07;;
76296;SDS011;65104;52.994;6.552;2024-01-11T14:14:04;20.65;;;8.80;;
76296;SDS011;65104;52.994;6.552;2024-01-11T14:16:31;16.30;;;8.35;;
76296;SDS011;65104;52.994;6.552;2024-01-11T14:18:58;23.15;;;9.05;;
76296;SDS011;65104;52.994;6.552;2024-01-11T14:21:24;18.42;;;9.02;;
76296;SDS011;65104;52.994;6.552;2024-01-11T14:23:51;22.85;;;8.90;;
76296;SDS011;65104;52.994;6.552;2024-01-11T14:26:19;16.50;;;9.35;;
76296;SDS011;65104;52.994;6.552;2024-01-11T14:28:46;16.60;;;8.32;;
76296;SDS011;65104;52.994;6.552;2024-01-11T14:31:12;19.13;;;10.23;;
76296;SDS011;65104;52.994;6.552;2024-01-11T14:33:39;22.73;;;9.20;;
76296;SDS011;65104;52.994;6.552;2024-01-11T14:36:06;18.00;;;8.13;;
76296;SDS011;65104;52.994;6.552;2024-01-11T14:38:33;20.48;;;11.10;;
76296;SDS011;65104;52.994;6.552;2024-01-11T14:40:59;24.25;;;11.90;;